createdAt,value
2023-02-09T00:01:28.987Z,55.10
2023-02-09T00:03:58.649Z,47.20
2023-02-09T00:06:27.190Z,56.10
2023-02-09T00:08:56.509Z,57.10
2023-02-09T00:11:48.105Z,49.30
2023-02-09T00:14:20.200Z,49.10
2023-02-09T00:16:50.990Z,42.00
2023-02-09T00:19:20.531Z,37.80
2023-02-09T00:21:48.891Z,40.50
2023-02-09T00:24:17.359Z,38.60
2023-02-09T00:26:45.945Z,42.10
2023-02-09T00:29:14.726Z,38.60
2023-02-09T00:31:43.464Z,37.70
2023-02-09T00:34:14.760Z,38.70
2023-02-09T00:36:43.099Z,39.40
2023-02-09T00:39:11.177Z,38.40
2023-02-09T00:42:17.502Z,37.00
2023-02-09T00:44:46.064Z,34.90
2023-02-09T00:47:14.235Z,38.00
2023-02-09T00:49:44.883Z,30.40
2023-02-09T00:52:13.011Z,37.50
2023-02-09T00:54:41.468Z,39.20
2023-02-09T00:57:09.748Z,37.00
2023-02-09T00:59:40.781Z,37.60
2023-02-09T01:02:10.505Z,37.70
2023-02-09T01:04:40.122Z,35.50
2023-02-09T01:07:08.083Z,37.10
2023-02-09T01:26:12.250Z,32.20
2023-02-09T01:28:40.623Z,33.50
2023-02-09T01:31:23.795Z,34.50
2023-02-09T01:33:55.721Z,36.30
2023-02-09T01:36:23.948Z,37.30
2023-02-09T01:38:54.539Z,35.30
2023-02-09T01:41:26.322Z,35.30
2023-02-09T01:44:01.496Z,35.60
2023-02-09T01:46:37.593Z,36.80
2023-02-09T01:49:13.805Z,35.10
2023-02-09T01:51:52.766Z,35.30
2023-02-09T01:54:29.055Z,36.50
2023-02-09T01:57:03.216Z,35.80
2023-02-09T01:59:34.221Z,35.70
2023-02-09T02:02:04.136Z,36.50
2023-02-09T02:04:33.694Z,38.80
2023-02-09T02:07:11.266Z,36.30
2023-02-09T02:09:39.970Z,35.90
2023-02-09T02:12:08.314Z,38.60
2023-02-09T02:14:42.022Z,37.90
2023-02-09T02:17:38.207Z,38.60
2023-02-09T02:20:28.024Z,40.60
2023-02-09T02:23:09.709Z,39.50
2023-02-09T02:26:15.588Z,39.80
2023-02-09T02:29:15.886Z,36.60
2023-02-09T02:32:03.197Z,37.30
2023-02-09T02:34:38.610Z,39.50
2023-02-09T02:37:27.669Z,37.40
2023-02-09T02:40:14.221Z,38.10
2023-02-09T02:42:49.204Z,41.60
2023-02-09T02:45:26.206Z,39.20
2023-02-09T02:48:15.210Z,40.70
2023-02-09T02:51:09.348Z,41.00
2023-02-09T02:53:42.338Z,41.90
2023-02-09T02:56:18.601Z,41.30
2023-02-09T02:58:50.152Z,44.90
2023-02-09T03:01:24.855Z,43.00
2023-02-09T03:03:54.547Z,44.90
2023-02-09T03:06:22.808Z,46.10
2023-02-09T03:08:54.178Z,47.20
2023-02-09T03:11:24.755Z,44.70
2023-02-09T03:14:11.418Z,44.90
2023-02-09T03:16:48.428Z,42.30
2023-02-09T03:19:38.899Z,39.20
2023-02-09T03:22:28.510Z,39.50
2023-02-09T03:25:07.743Z,38.50
2023-02-09T03:27:41.407Z,36.90
2023-02-09T03:30:13.631Z,38.80
2023-02-09T03:35:14.742Z,36.60
2023-02-09T03:40:10.995Z,34.20
2023-02-09T03:42:43.892Z,36.30
2023-02-09T03:45:11.934Z,37.20
2023-02-09T03:47:40.025Z,37.10
2023-02-09T03:50:10.145Z,38.30
2023-02-09T03:52:38.198Z,38.60
2023-02-09T03:55:06.946Z,37.60
2023-02-09T03:57:36.349Z,38.90
2023-02-09T04:00:07.708Z,38.80
2023-02-09T04:02:39.975Z,38.60
2023-02-09T04:05:08.310Z,38.80
2023-02-09T04:07:39.079Z,37.70
2023-02-09T04:10:07.625Z,38.90
2023-02-09T04:12:35.742Z,38.60
2023-02-09T04:15:04.128Z,37.40
2023-02-09T04:17:32.260Z,38.30
2023-02-09T04:20:01.370Z,36.90
2023-02-09T04:22:29.864Z,38.20
2023-02-09T04:24:58.025Z,37.50
2023-02-09T04:27:28.615Z,36.80
2023-02-09T04:29:56.752Z,38.40
2023-02-09T04:32:24.609Z,39.90
2023-02-09T04:34:53.058Z,40.40
2023-02-09T04:37:21.489Z,40.30
2023-02-09T04:39:49.784Z,43.40
2023-02-09T04:42:19.759Z,43.40
2023-02-09T04:45:09.352Z,45.10
2023-02-09T04:47:56.256Z,45.60
2023-02-09T04:50:25.376Z,45.70
2023-02-09T04:52:53.873Z,45.90
2023-02-09T04:55:30.745Z,47.60
2023-02-09T04:58:28.673Z,46.20
2023-02-09T05:00:59.340Z,46.80
2023-02-09T05:03:58.044Z,47.20
2023-02-09T05:07:12.930Z,48.60
2023-02-09T05:10:40.955Z,51.70
2023-02-09T05:14:05.407Z,49.60
2023-02-09T05:17:21.882Z,41.40
2023-02-09T05:20:11.922Z,42.80
2023-02-09T05:23:11.936Z,45.90
2023-02-09T05:34:01.928Z,37.50
2023-02-09T05:36:30.220Z,39.60
2023-02-09T05:38:58.552Z,44.00
2023-02-09T05:41:45.396Z,45.00
2023-02-09T05:44:13.699Z,41.70
2023-02-09T05:46:45.982Z,42.60
2023-02-09T05:49:14.652Z,43.00
2023-02-09T05:51:43.015Z,44.80
2023-02-09T05:54:11.407Z,42.30
2023-02-09T05:56:59.686Z,41.60
2023-02-09T05:59:40.612Z,40.70
2023-02-09T06:02:38.189Z,38.10
2023-02-09T06:05:08.301Z,41.50
2023-02-09T06:08:13.894Z,39.50
2023-02-09T06:11:13.921Z,38.60
2023-02-09T06:14:27.954Z,37.40
2023-02-09T06:17:47.865Z,39.60
2023-02-09T06:20:58.993Z,38.20
2023-02-09T06:24:11.093Z,39.20
2023-02-09T06:27:22.886Z,39.00
2023-02-09T06:30:20.855Z,40.00
2023-02-09T06:33:32.852Z,43.50
2023-02-09T06:36:48.870Z,47.60
2023-02-09T06:40:00.862Z,51.70
2023-02-09T06:43:15.717Z,65.90
2023-02-09T06:46:13.903Z,52.40
2023-02-09T06:49:25.847Z,52.40
2023-02-09T06:52:38.860Z,51.90
2023-02-09T06:55:59.851Z,51.50
2023-02-09T06:59:11.876Z,49.10
2023-02-09T07:02:16.385Z,52.00
2023-02-09T07:05:31.881Z,47.30
2023-02-09T07:08:48.873Z,48.60
2023-02-09T07:12:09.516Z,50.40
2023-02-09T07:15:17.832Z,51.80
2023-02-09T07:18:30.885Z,47.30
2023-02-09T07:21:02.480Z,47.50
2023-02-09T07:23:40.566Z,47.00
2023-02-09T07:26:15.435Z,47.80
2023-02-09T07:28:44.213Z,46.70
2023-02-09T07:31:14.659Z,51.00
2023-02-09T07:33:43.477Z,50.00
2023-02-09T07:36:16.058Z,45.20
2023-02-09T07:38:57.261Z,49.50
2023-02-09T07:41:29.550Z,49.10
2023-02-09T07:43:57.966Z,46.90
2023-02-09T07:46:29.316Z,47.90
2023-02-09T07:48:59.465Z,49.00
2023-02-09T07:51:34.092Z,49.10
2023-02-09T07:54:02.272Z,48.10
2023-02-09T07:56:30.676Z,49.60
2023-02-09T07:58:59.863Z,54.20
2023-02-09T08:01:27.940Z,49.30
2023-02-09T08:03:56.314Z,50.20
2023-02-09T08:06:47.737Z,49.00
2023-02-09T08:09:17.181Z,52.90
2023-02-09T08:11:48.684Z,50.40
2023-02-09T08:14:23.904Z,51.00
2023-02-09T08:17:16.037Z,47.80
2023-02-09T08:19:48.673Z,50.00
2023-02-09T08:24:45.519Z,43.20
2023-02-09T08:27:13.673Z,45.10
2023-02-09T08:29:44.381Z,47.60
2023-02-09T08:32:12.763Z,48.30
2023-02-09T08:34:48.929Z,46.00
2023-02-09T08:37:17.238Z,45.10
2023-02-09T08:39:49.009Z,48.10
2023-02-09T08:42:45.834Z,45.70
2023-02-09T08:50:05.808Z,43.10
2023-02-09T08:52:44.458Z,43.00
2023-02-09T08:55:48.308Z,38.20
2023-02-09T08:58:47.796Z,29.80
2023-02-09T09:01:30.714Z,31.90
2023-02-09T09:04:11.407Z,31.50
2023-02-09T09:06:51.911Z,30.50
2023-02-09T09:09:23.748Z,30.90
2023-02-09T09:11:54.839Z,31.40
2023-02-09T09:14:23.608Z,31.50
2023-02-09T09:17:31.230Z,28.40
2023-02-09T09:19:59.525Z,28.60
2023-02-09T09:22:43.723Z,29.20
2023-02-09T09:29:17.916Z,25.00
2023-02-09T09:35:41.084Z,21.30
2023-02-09T09:38:29.787Z,20.20
2023-02-09T09:41:46.493Z,20.50
2023-02-09T09:44:30.778Z,19.50
2023-02-09T09:47:31.753Z,20.50
2023-02-09T09:51:22.947Z,19.20
2023-02-09T10:01:32.893Z,19.80
2023-02-09T10:15:34.132Z,19.20
2023-02-09T10:19:13.736Z,19.50
2023-02-09T10:37:46.169Z,14.30
2023-02-09T10:40:30.873Z,19.30
2023-02-09T10:43:02.661Z,18.60
2023-02-09T10:45:45.616Z,18.30
2023-02-09T10:48:13.940Z,18.50
2023-02-09T10:51:02.139Z,17.70
2023-02-09T10:53:35.062Z,18.70
2023-02-09T10:56:15.818Z,18.30
2023-02-09T10:58:51.802Z,16.80
2023-02-09T11:01:26.406Z,18.30
2023-02-09T11:04:09.918Z,17.80
2023-02-09T11:10:21.944Z,17.50
2023-02-09T12:42:17.313Z,12.80
2023-02-09T12:49:02.189Z,13.80
2023-02-09T12:51:54.180Z,12.70
2023-02-09T12:54:31.735Z,13.20
2023-02-09T12:57:14.744Z,13.60
2023-02-09T13:00:00.867Z,13.00
2023-02-09T13:02:31.984Z,11.80
2023-02-09T13:05:11.712Z,12.10
2023-02-09T13:07:55.292Z,11.70
2023-02-09T13:43:04.881Z,12.40
2023-02-09T14:38:36.496Z,11.60
2023-02-09T14:41:58.156Z,10.70
2023-02-09T14:44:27.716Z,10.90
2023-02-09T14:47:00.090Z,10.70
2023-02-09T14:49:28.847Z,9.80
2023-02-09T14:52:15.150Z,10.50
2023-02-09T15:35:16.096Z,13.30
2023-02-09T16:06:17.814Z,10.40
